ENFB

Oslo, Fornebu Airport

Oslo, Norway
METAR ENFB 241150Z AUTO 18030KT //// BKN031/// 06/M01 Q1031 W///S5
Observed Flight Rules
Feb-24 @ 11:50 UTC (34 minutes ago)
Wind Clouds
180° at 30 knots
  • Broken at 3,100' AGL
Temperatures Readings
Current 6°C / 43°F
Dewpoint -1°C / 30°F
Humidity 61%
Altimeter 30.44" Hg
Pressure 1031 hPa
Elevation 10
METAR ENFB 241150Z AUTO 18030KT //// BKN031/// 06/M01 Q1031 W///S5
Observed Flight Rules
Feb-24 @ 11:50 UTC
(34 minutes ago)
Wind
180° at 30 knots
Clouds
  • Broken at 3,100' AGL
Temperature Dewpoint
6°C / 43°F -1°C / 30°F
Humidity Altimeter Pressure
61% 30.44" Hg 1031 hPa